Time;durP1;ratioP1;P1;durP2;ratioP2;P2;SDS_P1;SDS_P2;PMS_P1;PMS_P2;Temp;Humidity;BMP_temperature;BMP_pressure;BME280_temperature;BME280_humidity;BME280_pressure;Samples;Min_cycle;Max_cycle;Signal;HPM_P1;HPM_P2
2022/10/05 00:00:14;;;;;;;8.35;5.00;;;;;;;8.83;100.00;97858.94;5025978;28;20116;-62
2022/10/05 00:02:41;;;;;;;6.97;4.95;;;;;;;8.81;100.00;97858.38;5025508;28;20132;-62
2022/10/05 00:05:28;;;;;;;7.40;4.85;;;;;;;8.82;100.00;97866.22;5025268;28;20049;-61
2022/10/05 00:08:03;;;;;;;8.50;5.30;;;;;;;8.85;100.00;97864.97;5026384;28;20390;-62
2022/10/05 00:10:30;;;;;;;8.73;5.50;;;;;;;8.81;100.00;97861.06;5026036;28;20073;-63
2022/10/05 00:12:56;;;;;;;10.30;5.28;;;;;;;8.85;100.00;97864.97;5026037;28;20120;-63
2022/10/05 00:15:23;;;;;;;8.52;5.38;;;;;;;8.83;100.00;97867.88;5024407;28;20046;-62
2022/10/05 00:17:49;;;;;;;7.68;4.78;;;;;;;8.74;100.00;97863.03;5026009;28;20045;-62
2022/10/05 00:20:24;;;;;;;7.53;5.55;;;;;;;8.51;100.00;97856.44;5025642;28;20097;-63
2022/10/05 00:22:56;;;;;;;8.20;5.43;;;;;;;8.53;100.00;97851.66;5025418;28;20041;-62
2022/10/05 00:25:23;;;;;;;18.48;5.30;;;;;;;8.58;100.00;97851.78;5006540;28;20042;-62
2022/10/05 00:27:57;;;;;;;7.72;4.97;;;;;;;8.53;100.00;97852.47;5014481;28;20133;-63
2022/10/05 00:30:29;;;;;;;9.07;5.72;;;;;;;8.47;100.00;97853.34;5026111;28;20073;-63
2022/10/05 00:32:56;;;;;;;8.38;5.53;;;;;;;8.48;100.00;97851.47;5023969;28;20144;-62
2022/10/05 00:35:28;;;;;;;9.95;5.78;;;;;;;8.49;100.00;97850.41;5025610;28;20485;-62
2022/10/05 00:37:55;;;;;;;9.48;5.47;;;;;;;8.43;100.00;97844.06;5057930;28;20045;-62
2022/10/05 00:40:34;;;;;;;9.88;5.93;;;;;;;8.49;100.00;97845.03;5023903;28;20048;-62
2022/10/05 00:43:25;;;;;;;10.32;5.75;;;;;;;8.27;100.00;97837.41;5024786;28;20045;-62
2022/10/05 00:46:39;;;;;;;8.10;5.75;;;;;;;8.19;100.00;97842.03;5025964;28;20050;-61
2022/10/05 00:49:33;;;;;;;10.07;5.75;;;;;;;8.27;100.00;97842.78;5024182;28;20041;-62
2022/10/05 00:52:51;;;;;;;9.07;5.72;;;;;;;8.29;100.00;97841.50;5025195;28;20069;-62
2022/10/05 00:55:37;;;;;;;13.13;6.32;;;;;;;8.27;100.00;97848.19;5034773;28;20068;-62
2022/10/05 00:58:31;;;;;;;10.60;5.00;;;;;;;8.33;100.00;97856.19;5024991;28;20520;-62
2022/10/05 01:01:12;;;;;;;8.18;5.30;;;;;;;8.41;100.00;97852.38;5024850;28;20120;-62
2022/10/05 01:03:57;;;;;;;6.43;4.65;;;;;;;8.41;100.00;97854.25;5018814;28;20044;-62
2022/10/05 01:06:49;;;;;;;13.73;6.05;;;;;;;8.09;100.00;97860.63;5023302;28;20544;-62
2022/10/05 01:09:41;;;;;;;7.43;5.18;;;;;;;7.96;100.00;97855.38;5026362;28;20072;-63
2022/10/05 01:12:10;;;;;;;7.97;5.20;;;;;;;7.87;100.00;97857.53;5024525;28;20129;-62
2022/10/05 01:14:43;;;;;;;9.65;5.63;;;;;;;7.98;100.00;97855.97;5025682;28;20068;-62
2022/10/05 01:17:09;;;;;;;8.00;5.22;;;;;;;8.05;100.00;97846.78;5025633;28;20120;-62
2022/10/05 01:20:11;;;;;;;7.57;5.32;;;;;;;8.13;100.00;97845.66;5017379;28;20045;-63
2022/10/05 01:22:59;;;;;;;8.65;5.82;;;;;;;8.18;100.00;97856.56;5020571;28;20037;-62
2022/10/05 01:25:40;;;;;;;7.97;5.18;;;;;;;8.16;100.00;97845.19;5024240;28;20068;-62
2022/10/05 01:28:22;;;;;;;8.57;5.63;;;;;;;7.92;100.00;97846.88;5020645;28;20463;-62
2022/10/05 01:30:59;;;;;;;9.77;5.53;;;;;;;7.77;100.00;97842.69;5029118;28;20520;-62
2022/10/05 01:33:40;;;;;;;8.38;5.35;;;;;;;7.72;100.00;97839.00;5027874;28;20041;-62
2022/10/05 01:36:18;;;;;;;8.52;5.90;;;;;;;7.70;100.00;97828.44;5027472;28;20522;-62
2022/10/05 01:39:12;;;;;;;9.68;6.07;;;;;;;7.77;100.00;97834.59;5028922;28;20576;-62
2022/10/05 01:41:50;;;;;;;10.50;5.80;;;;;;;7.78;100.00;97832.72;5060841;28;20056;-62
2022/10/05 01:44:24;;;;;;;8.98;5.68;;;;;;;7.80;100.00;97834.16;5010997;28;20057;-62
2022/10/05 01:47:16;;;;;;;8.95;5.88;;;;;;;7.77;100.00;97828.38;5028944;28;20061;-62
2022/10/05 01:49:54;;;;;;;8.57;5.80;;;;;;;7.84;100.00;97829.13;5027049;28;20069;-62
2022/10/05 01:53:05;;;;;;;9.93;5.60;;;;;;;7.87;100.00;97826.00;5027361;28;20298;-62
2022/10/05 01:55:46;;;;;;;9.20;5.45;;;;;;;7.89;100.00;97823.91;5021429;28;20037;-62
2022/10/05 01:58:28;;;;;;;8.70;5.72;;;;;;;8.03;100.00;97823.75;5042632;28;20140;-62
2022/10/05 02:01:08;;;;;;;9.77;5.78;;;;;;;8.14;100.00;97819.50;5013645;28;20246;-62
2022/10/05 02:03:41;;;;;;;14.52;6.57;;;;;;;8.11;100.00;97814.56;5026649;28;20412;-62
2022/10/05 02:06:14;;;;;;;9.93;6.45;;;;;;;8.22;100.00;97815.66;5027753;28;20136;-61
2022/10/05 02:08:48;;;;;;;11.13;6.65;;;;;;;8.28;100.00;97814.75;5027414;28;20045;-62
2022/10/05 02:11:17;;;;;;;11.40;6.75;;;;;;;8.35;100.00;97811.97;5026995;28;20563;-62
2022/10/05 02:13:49;;;;;;;10.23;5.93;;;;;;;8.40;100.00;97798.66;5027076;28;20044;-62
2022/10/05 02:16:35;;;;;;;8.77;5.43;;;;;;;8.29;100.00;97802.94;5007669;28;20069;-62
2022/10/05 02:19:15;;;;;;;8.18;5.65;;;;;;;8.30;100.00;97802.69;5025965;28;20476;-62
2022/10/05 02:21:47;;;;;;;8.05;5.45;;;;;;;8.32;100.00;97802.47;5025630;28;20049;-63
2022/10/05 02:24:26;;;;;;;10.77;5.75;;;;;;;8.33;100.00;97801.41;5009993;28;20129;-62
2022/10/05 02:26:55;;;;;;;9.48;5.82;;;;;;;8.29;100.00;97802.94;5026861;28;20052;-62
2022/10/05 02:29:26;;;;;;;9.38;6.30;;;;;;;8.28;100.00;97798.56;5024151;28;20073;-62
2022/10/05 02:31:59;;;;;;;9.20;6.13;;;;;;;8.35;100.00;97804.72;5008411;28;20065;-62
2022/10/05 02:34:42;;;;;;;9.45;5.93;;;;;;;8.34;100.00;97805.78;5027002;28;20284;-62
2022/10/05 02:37:38;;;;;;;8.80;5.38;;;;;;;8.38;100.00;97806.13;5026047;28;20068;-62
2022/10/05 02:40:14;;;;;;;10.73;5.40;;;;;;;8.41;100.00;97811.88;5028336;28;20587;-62
2022/10/05 02:42:51;;;;;;;8.75;5.68;;;;;;;8.42;100.00;97821.66;5026177;28;20658;-62
2022/10/05 02:45:31;;;;;;;8.07;5.03;;;;;;;8.43;100.00;97828.69;5059535;28;20091;-62
2022/10/05 02:48:18;;;;;;;8.10;5.60;;;;;;;8.47;100.00;97831.75;5028149;28;20045;-62
2022/10/05 02:51:01;;;;;;;11.05;5.10;;;;;;;8.29;100.00;97829.91;5025613;28;20037;-62
2022/10/05 02:54:12;;;;;;;12.38;5.90;;;;;;;8.05;100.00;97829.75;5043164;28;20547;-62
2022/10/05 02:56:54;;;;;;;7.78;5.95;;;;;;;8.00;100.00;97837.69;5007389;28;20117;-62
2022/10/05 02:59:29;;;;;;;10.40;6.10;;;;;;;7.97;100.00;97820.09;5011526;28;20073;-62
2022/10/05 03:02:14;;;;;;;8.40;5.28;;;;;;;7.97;100.00;97819.25;5058594;28;20516;-62
2022/10/05 03:04:44;;;;;;;9.95;5.15;;;;;;;8.07;100.00;97808.75;5025787;28;20091;-62
2022/10/05 03:07:16;;;;;;;8.13;5.35;;;;;;;8.14;100.00;97814.91;5026174;28;20037;-62
2022/10/05 03:09:55;;;;;;;7.43;4.72;;;;;;;8.26;100.00;97819.56;5022195;28;20042;-62
2022/10/05 03:12:49;;;;;;;9.48;5.32;;;;;;;8.38;100.00;97806.13;5049002;28;20041;-62
2022/10/05 03:15:47;;;;;;;7.25;5.35;;;;;;;8.33;100.00;97804.94;5025512;28;20057;-61
2022/10/05 03:18:47;;;;;;;7.07;4.97;;;;;;;8.32;100.00;97802.47;5025302;28;20468;-62
2022/10/05 03:21:32;;;;;;;7.57;5.07;;;;;;;8.19;100.00;97800.78;5026501;28;20467;-62
2022/10/05 03:24:25;;;;;;;8.48;4.57;;;;;;;8.37;100.00;97789.09;5026108;28;20042;-62
2022/10/05 03:27:01;;;;;;;8.57;5.22;;;;;;;8.12;100.00;97784.66;5006320;28;20049;-62
2022/10/05 03:29:46;;;;;;;10.35;5.57;;;;;;;8.06;100.00;97780.16;5009997;28;20452;-62
2022/10/05 03:32:28;;;;;;;7.47;5.25;;;;;;;7.86;100.00;97778.53;5025285;28;20049;-62
2022/10/05 03:35:02;;;;;;;12.40;5.88;;;;;;;7.73;100.00;97784.03;5026077;28;20586;-62
2022/10/05 03:37:40;;;;;;;9.05;5.90;;;;;;;7.70;100.00;97781.81;5025583;28;20133;-62
2022/10/05 03:40:25;;;;;;;9.60;6.32;;;;;;;7.65;100.00;97777.06;5059031;28;20073;-61
2022/10/05 03:43:11;;;;;;;9.40;5.70;;;;;;;7.48;100.00;97777.66;5058753;28;20051;-62
2022/10/05 03:45:59;;;;;;;14.45;6.60;;;;;;;7.30;100.00;97775.75;5026807;28;20461;-62
2022/10/05 03:48:26;;;;;;;8.82;6.03;;;;;;;7.29;100.00;97768.69;5025493;28;20092;-62
2022/10/05 03:51:14;;;;;;;8.10;5.00;;;;;;;7.30;100.00;97775.75;5021267;28;20045;-62
2022/10/05 03:53:51;;;;;;;11.27;5.65;;;;;;;7.37;100.00;97773.00;5024895;28;20456;-62
2022/10/05 03:56:33;;;;;;;7.47;5.40;;;;;;;7.43;100.00;97769.41;5025079;28;20037;-62
2022/10/05 03:59:06;;;;;;;;;;;;;;;7.37;100.00;97770.31;5025984;28;20559;-62
2022/10/05 04:01:46;;;;;;;12.00;5.65;;;;;;;7.37;100.00;97765.72;5025805;28;19961;-62
2022/10/05 04:04:21;;;;;;;10.73;5.50;;;;;;;7.25;100.00;97772.88;5022239;28;20042;-62
2022/10/05 04:06:51;;;;;;;9.63;5.90;;;;;;;7.14;100.00;97769.03;5026213;28;20045;-62
2022/10/05 04:09:38;;;;;;;8.05;5.45;;;;;;;7.09;100.00;97767.00;5025574;28;20045;-61
2022/10/05 04:12:29;;;;;;;12.35;6.30;;;;;;;7.12;100.00;97774.63;5024498;28;20041;-62
2022/10/05 04:15:01;;;;;;;10.33;5.67;;;;;;;7.15;100.00;97774.19;5022138;28;20465;-61
2022/10/05 04:17:53;;;;;;;9.05;5.82;;;;;;;7.17;100.00;97773.97;5026069;28;20045;-62
2022/10/05 04:20:55;;;;;;;9.10;6.35;;;;;;;7.25;100.00;97756.72;5021741;28;20088;-62
2022/10/05 04:23:27;;;;;;;;;;;;;;;7.25;100.00;97757.56;5014774;28;20456;-62
2022/10/05 04:26:03;;;;;;;12.02;6.03;;;;;;;7.26;100.00;97756.50;5025412;28;20027;-62
2022/10/05 04:29:01;;;;;;;7.78;5.60;;;;;;;7.27;100.00;97751.94;5024606;28;20072;-62
2022/10/05 04:31:59;;;;;;;8.93;5.57;;;;;;;7.37;100.00;97749.56;5005977;28;20053;-63
2022/10/05 04:34:47;;;;;;;11.95;5.78;;;;;;;7.42;100.00;97748.91;4990028;28;20057;-62
2022/10/05 04:37:43;;;;;;;7.38;5.38;;;;;;;7.44;100.00;97754.06;5024054;28;20053;-62
2022/10/05 04:41:00;;;;;;;7.90;5.45;;;;;;;7.48;100.00;97761.47;5031938;28;20663;-62
2022/10/05 04:43:52;;;;;;;10.93;6.03;;;;;;;7.49;100.00;97762.31;4999081;28;20069;-62
2022/10/05 04:46:37;;;;;;;10.68;6.30;;;;;;;7.48;100.00;97768.75;5002461;28;20084;-60
2022/10/05 04:49:13;;;;;;;9.20;5.25;;;;;;;7.49;100.00;97768.50;5017820;28;20092;-63
2022/10/05 04:51:51;;;;;;;10.38;5.95;;;;;;;7.54;100.00;97774.06;5020173;28;20073;-62
2022/10/05 04:55:05;;;;;;;8.35;5.70;;;;;;;7.55;100.00;97781.09;5020111;28;20136;-62
2022/10/05 04:57:49;;;;;;;9.07;5.60;;;;;;;7.34;100.00;97778.81;5024594;28;20072;-62
2022/10/05 05:00:24;;;;;;;8.80;6.32;;;;;;;7.20;100.00;97776.25;5024439;28;20520;-62
2022/10/05 05:03:09;;;;;;;17.70;6.95;;;;;;;7.22;100.00;97784.91;5027604;28;20041;-62
2022/10/05 05:05:48;;;;;;;10.63;6.35;;;;;;;7.16;100.00;97783.94;5029857;28;20045;-62
2022/10/05 05:09:12;;;;;;;9.52;6.20;;;;;;;7.18;100.00;97783.72;5008817;28;20050;-62
2022/10/05 05:12:03;;;;;;;8.68;6.03;;;;;;;7.19;100.00;97790.72;5023573;28;20045;-62
2022/10/05 05:14:58;;;;;;;13.93;6.10;;;;;;;7.21;100.00;97795.91;5024807;28;20520;-62
2022/10/05 05:17:31;;;;;;;10.50;6.13;;;;;;;7.08;100.00;97791.47;5015761;28;20528;-62
2022/10/05 05:20:25;;;;;;;8.88;5.75;;;;;;;6.89;100.00;97797.59;5026429;28;20053;-62
2022/10/05 05:23:11;;;;;;;11.45;6.65;;;;;;;6.55;100.00;97799.66;4995676;28;20059;-61
2022/10/05 05:26:20;;;;;;;9.23;6.32;;;;;;;6.42;100.00;97814.00;5021972;28;20038;-61
2022/10/05 05:28:56;;;;;;;9.30;6.50;;;;;;;6.41;100.00;97812.34;5022776;28;20472;-61
2022/10/05 05:31:28;;;;;;;10.70;6.80;;;;;;;6.41;100.00;97820.41;5025997;28;20072;-61
2022/10/05 05:34:29;;;;;;;13.05;6.70;;;;;;;6.30;100.00;97808.47;5025461;28;20132;-60
2022/10/05 05:37:16;;;;;;;10.63;6.32;;;;;;;6.47;100.00;97821.44;5025383;28;20761;-60
2022/10/05 05:40:04;;;;;;;10.25;6.53;;;;;;;6.58;100.00;97819.94;5021684;28;20087;-61
2022/10/05 05:42:48;;;;;;;12.07;6.47;;;;;;;6.70;100.00;97822.75;5025207;28;20064;-62
2022/10/05 05:45:38;;;;;;;14.55;6.57;;;;;;;6.58;100.00;97820.75;5027042;28;20041;-61
2022/10/05 05:48:16;;;;;;;12.68;6.10;;;;;;;6.38;100.00;97829.75;5025825;28;20042;-61
2022/10/05 05:51:08;;;;;;;17.42;9.88;;;;;;;6.42;100.00;97827.47;5024638;28;20049;-63
2022/10/05 05:53:40;;;;;;;8.00;5.47;;;;;;;6.56;100.00;97828.22;5053335;28;20049;-63
2022/10/05 05:56:13;;;;;;;9.85;6.43;;;;;;;6.82;100.00;97822.91;5020623;28;20432;-63
2022/10/05 05:58:52;;;;;;;8.70;5.63;;;;;;;6.95;100.00;97825.50;5058273;28;20552;-63
2022/10/05 06:01:25;;;;;;;9.05;6.40;;;;;;;6.88;100.00;97825.56;5024222;28;20046;-63
2022/10/05 06:04:42;;;;;;;8.77;5.78;;;;;;;6.89;100.00;97824.50;5054792;28;20045;-63
2022/10/05 06:07:19;;;;;;;9.73;5.85;;;;;;;7.02;100.00;97822.78;5014401;28;20067;-63
2022/10/05 06:10:04;;;;;;;12.32;6.05;;;;;;;7.10;100.00;97825.22;5026798;28;20124;-63
2022/10/05 06:12:46;;;;;;;8.30;5.40;;;;;;;7.22;100.00;97829.91;5026194;28;20070;-63
2022/10/05 06:15:26;;;;;;;;;;;;;;;6.97;100.00;97828.81;5024968;28;20677;-63
2022/10/05 06:17:55;;;;;;;11.75;6.35;;;;;;;6.87;100.00;97832.00;5023696;28;19925;-63
2022/10/05 06:20:39;;;;;;;12.05;5.38;;;;;;;7.03;100.00;97838.72;5024223;28;20048;-62
2022/10/05 06:23:21;;;;;;;11.52;6.28;;;;;;;7.11;100.00;97850.28;5021322;28;20059;-63
2022/10/05 06:26:12;;;;;;;13.15;6.93;;;;;;;7.06;100.00;97848.22;5023427;28;20558;-63
2022/10/05 06:28:41;;;;;;;7.88;5.47;;;;;;;7.18;100.00;97850.22;5023066;28;20061;-63
2022/10/05 06:31:29;;;;;;;10.05;6.13;;;;;;;7.15;100.00;97857.69;5023583;28;20033;-62
2022/10/05 06:34:36;;;;;;;9.18;6.57;;;;;;;7.40;100.00;97862.28;5024276;28;20119;-63
2022/10/05 06:37:12;;;;;;;11.27;7.35;;;;;;;7.30;100.00;97867.34;5005914;28;20751;-63
2022/10/05 06:39:54;;;;;;;11.88;6.50;;;;;;;7.28;100.00;97864.03;5024018;28;20128;-63
2022/10/05 06:42:57;;;;;;;9.25;6.68;;;;;;;7.33;100.00;97866.88;5023455;28;20053;-62
2022/10/05 06:45:58;;;;;;;11.10;6.63;;;;;;;7.52;100.00;97875.06;5026433;28;20432;-63
2022/10/05 06:48:45;;;;;;;11.02;8.43;;;;;;;7.59;100.00;97878.50;5023895;28;20042;-63
2022/10/05 06:51:49;;;;;;;10.48;6.68;;;;;;;7.73;100.00;97879.22;5024683;28;20053;-63
2022/10/05 06:54:44;;;;;;;12.55;7.57;;;;;;;7.87;100.00;97882.63;5023058;28;20064;-63
2022/10/05 06:57:44;;;;;;;10.53;5.83;;;;;;;7.91;100.00;97877.59;5025358;28;20073;-63
2022/10/05 07:00:26;;;;;;;11.35;6.63;;;;;;;8.02;100.00;97876.03;5008864;28;20072;-63
2022/10/05 07:03:17;;;;;;;11.02;5.47;;;;;;;8.13;100.00;97875.31;5027004;28;20132;-63
2022/10/05 07:05:43;;;;;;;16.63;6.00;;;;;;;8.23;100.00;97877.50;5026435;28;20050;-63
2022/10/05 07:08:35;;;;;;;10.63;5.82;;;;;;;8.45;100.00;97877.84;5025998;28;20572;-63
2022/10/05 07:11:20;;;;;;;12.70;6.13;;;;;;;8.49;100.00;97877.41;5025890;28;20103;-63
2022/10/05 07:14:22;;;;;;;8.73;5.43;;;;;;;8.63;100.00;97873.56;5009460;28;20048;-63
2022/10/05 07:17:06;;;;;;;8.02;5.60;;;;;;;8.91;100.00;97877.53;5006179;28;20038;-63
2022/10/05 07:20:10;;;;;;;11.18;5.47;;;;;;;8.94;100.00;97884.34;5025785;28;20091;-63
2022/10/05 07:23:00;;;;;;;8.02;5.32;;;;;;;8.96;100.00;97887.66;5025590;28;20170;-63
2022/10/05 07:25:33;;;;;;;7.70;4.80;;;;;;;9.02;100.00;97884.03;5024994;28;20132;-64
2022/10/05 07:28:45;;;;;;;8.15;4.70;;;;;;;9.09;100.00;97883.94;5025310;28;20045;-63
2022/10/05 07:31:25;;;;;;;7.05;4.70;;;;;;;9.21;100.00;97892.91;5009902;28;20049;-63
2022/10/05 07:34:17;;;;;;;7.78;4.47;;;;;;;9.29;100.00;97885.53;5027162;28;20041;-63
2022/10/05 07:40:02;;;;;;;8.45;5.40;;;;;;;9.51;100.00;97888.50;5026144;28;20037;-63
2022/10/05 07:42:51;;;;;;;7.57;5.30;;;;;;;9.58;100.00;97885.72;5024954;28;20037;-64
2022/10/05 07:45:46;;;;;;;8.82;4.63;;;;;;;9.66;100.00;97889.97;5009759;28;20061;-63
2022/10/05 07:48:19;;;;;;;8.68;4.85;;;;;;;9.80;100.00;97887.88;5024809;28;20059;-64
2022/10/05 07:50:58;;;;;;;8.02;4.82;;;;;;;9.92;100.00;97894.09;5022604;28;20058;-64
2022/10/05 07:53:39;;;;;;;6.40;4.95;;;;;;;10.09;100.00;97890.66;5020894;28;20108;-63
2022/10/05 07:56:35;;;;;;;8.13;4.30;;;;;;;10.27;100.00;97900.53;5016212;28;20061;-63
2022/10/05 07:59:13;;;;;;;6.40;4.45;;;;;;;10.36;100.00;97882.88;5017392;28;20045;-63
2022/10/05 08:01:46;;;;;;;5.68;4.05;;;;;;;10.53;100.00;97890.28;5023168;28;20053;-63
2022/10/05 08:04:18;;;;;;;5.70;3.65;;;;;;;10.59;100.00;97880.41;5021601;28;20059;-63
2022/10/05 08:07:05;;;;;;;6.32;3.80;;;;;;;10.74;100.00;97888.00;5024780;28;20080;-63
2022/10/05 08:09:38;;;;;;;6.32;3.75;;;;;;;10.78;100.00;97886.47;5024587;28;20055;-63
2022/10/05 08:12:26;;;;;;;5.10;3.38;;;;;;;10.84;100.00;97880.06;5021255;28;20591;-64
2022/10/05 08:15:30;;;;;;;5.20;3.10;;;;;;;10.90;100.00;97884.53;5019413;28;20574;-63
2022/10/05 08:18:01;;;;;;;5.07;3.38;;;;;;;10.99;100.00;97881.44;5020653;28;20596;-63
2022/10/05 08:20:46;;;;;;;4.57;2.90;;;;;;;11.06;100.00;97882.13;5024409;28;20575;-63
2022/10/05 08:23:41;;;;;;;8.32;3.28;;;;;;;11.15;100.00;97882.56;5024374;28;20045;-63
2022/10/05 08:26:16;;;;;;;5.38;3.35;;;;;;;11.31;100.00;97880.94;5024144;28;20080;-63
2022/10/05 08:29:21;;;;;;;4.85;3.10;;;;;;;11.39;100.00;97883.25;5024622;28;20103;-63
2022/10/05 08:31:50;;;;;;;5.28;3.38;;;;;;;11.48;100.00;97875.53;5024921;28;20042;-63
2022/10/05 08:34:44;;;;;;;5.13;2.97;;;;;;;11.63;100.00;97869.53;5026098;28;20041;-63
2022/10/05 08:37:19;;;;;;;5.85;3.67;;;;;;;11.78;100.00;97868.97;5021212;28;20065;-63
2022/10/05 08:39:52;;;;;;;5.75;3.53;;;;;;;11.91;100.00;97867.00;5025867;28;20061;-63
2022/10/05 08:42:35;;;;;;;9.82;3.50;;;;;;;11.99;100.00;97868.44;5025830;28;20124;-63
2022/10/05 08:45:19;;;;;;;3.85;2.75;;;;;;;12.10;100.00;97867.56;5023593;28;20052;-63
2022/10/05 08:48:22;;;;;;;5.68;3.40;;;;;;;12.29;100.00;97864.56;5024299;28;20045;-63
2022/10/05 08:50:57;;;;;;;7.57;3.28;;;;;;;12.36;100.00;97868.72;5023196;28;20050;-63
2022/10/05 08:53:53;;;;;;;5.15;3.47;;;;;;;12.52;100.00;97871.63;5023436;28;20041;-63
2022/10/05 08:56:32;;;;;;;4.60;3.22;;;;;;;12.69;100.00;97862.59;5014075;28;20483;-63
2022/10/05 08:58:58;;;;;;;5.63;3.28;;;;;;;12.83;99.18;97871.19;5010411;28;20048;-63
2022/10/05 09:01:28;;;;;;;4.28;2.90;;;;;;;12.89;98.62;97872.88;5022410;28;20175;-63
2022/10/05 09:04:03;;;;;;;5.10;3.13;;;;;;;12.97;98.54;97860.75;5019247;28;20057;-63
2022/10/05 09:06:53;;;;;;;5.07;3.25;;;;;;;13.11;98.91;97858.44;5023559;28;20128;-63
2022/10/05 09:09:36;;;;;;;5.20;3.22;;;;;;;13.25;96.87;97856.13;5023861;28;20056;-62
2022/10/05 09:12:40;;;;;;;4.38;2.40;;;;;;;13.40;95.99;97853.56;5023949;28;20132;-62
2022/10/05 09:15:44;;;;;;;4.43;2.53;;;;;;;13.61;95.10;97852.94;5022019;28;20037;-62
2022/10/05 09:18:44;;;;;;;7.82;3.13;;;;;;;13.77;93.14;97842.97;5004939;28;20078;-60
2022/10/05 09:21:37;;;;;;;4.90;2.22;;;;;;;13.90;92.41;97847.97;5022493;28;20041;-62
2022/10/05 09:24:26;;;;;;;7.07;2.95;;;;;;;14.18;91.99;97843.25;5026167;28;20136;-62
2022/10/05 09:27:11;;;;;;;3.92;2.30;;;;;;;14.34;89.87;97846.03;5024918;28;20041;-61
2022/10/05 09:29:50;;;;;;;3.80;2.20;;;;;;;14.50;90.34;97846.94;5025917;28;20069;-61
2022/10/05 09:32:35;;;;;;;3.38;1.83;;;;;;;14.61;89.70;97842.34;5024438;28;20042;-63
2022/10/05 09:35:21;;;;;;;7.57;5.10;;;;;;;14.74;89.77;97840.22;5025715;28;20118;-63
2022/10/05 09:37:56;;;;;;;4.18;2.35;;;;;;;14.89;90.09;97837.53;5021204;28;20113;-63
2022/10/05 09:40:52;;;;;;;7.53;2.45;;;;;;;15.05;88.01;97832.97;5018923;28;20044;-63
2022/10/05 09:43:29;;;;;;;4.60;1.83;;;;;;;15.20;86.50;97826.72;5022039;28;20045;-63
2022/10/05 09:46:10;;;;;;;8.20;2.15;;;;;;;15.42;83.65;97831.09;5018626;28;20092;-62
2022/10/05 09:48:55;;;;;;;5.10;1.90;;;;;;;15.48;83.78;97821.78;5025954;28;20484;-63
2022/10/05 09:51:28;;;;;;;3.78;2.17;;;;;;;15.82;84.05;97822.31;5013123;28;20596;-62
2022/10/05 09:54:13;;;;;;;6.50;2.47;;;;;;;16.16;81.27;97829.09;5026811;28;20580;-63
2022/10/05 09:57:17;;;;;;;3.15;1.80;;;;;;;16.49;77.74;97822.19;5026810;28;20528;-62
2022/10/05 09:59:46;;;;;;;2.63;1.45;;;;;;;16.46;76.43;97817.25;5014529;28;20057;-62
2022/10/05 10:02:32;;;;;;;3.50;1.75;;;;;;;16.63;76.99;97816.09;5025260;28;20045;-63
2022/10/05 10:05:18;;;;;;;3.45;1.92;;;;;;;16.77;78.90;97816.31;5023443;28;20116;-61
2022/10/05 10:08:04;;;;;;;6.72;2.00;;;;;;;16.75;75.56;97815.75;5020377;28;20099;-63
2022/10/05 10:11:06;;;;;;;4.90;2.00;;;;;;;16.89;75.17;97802.28;5026540;28;20038;-62
2022/10/05 10:13:38;;;;;;;;;;;;;;;17.08;75.92;97809.84;5026863;28;20124;-63
2022/10/05 10:16:24;;;;;;;3.95;1.50;;;;;;;17.24;72.97;97794.94;5026453;28;19921;-59
2022/10/05 10:19:00;;;;;;;2.47;1.58;;;;;;;17.11;73.74;97795.59;5026554;28;20083;-59
2022/10/05 10:21:58;;;;;;;4.05;1.80;;;;;;;17.42;71.47;97792.63;5026266;28;20042;-58
2022/10/05 10:24:47;;;;;;;2.63;1.40;;;;;;;17.29;70.67;97786.69;5018396;28;20045;-60
2022/10/05 10:27:39;;;;;;;5.78;2.40;;;;;;;17.54;71.35;97786.75;5025791;28;20055;-57
2022/10/05 10:30:25;;;;;;;2.17;1.40;;;;;;;17.52;72.74;97788.97;5026544;28;20053;-61
2022/10/05 10:33:14;;;;;;;4.50;1.80;;;;;;;17.46;73.03;97785.47;5026336;28;20069;-62
2022/10/05 10:35:57;;;;;;;4.03;1.70;;;;;;;17.48;73.04;97785.19;5024004;28;20120;-56
2022/10/05 10:38:39;;;;;;;3.53;1.50;;;;;;;17.37;72.96;97776.25;5025905;28;20121;-60
2022/10/05 10:41:05;;;;;;;2.88;1.40;;;;;;;17.34;73.96;97774.91;5024655;28;20138;-59
2022/10/05 10:44:09;;;;;;;4.00;1.50;;;;;;;17.28;73.54;97774.13;5026247;28;20046;-60
2022/10/05 10:46:51;;;;;;;3.10;1.30;;;;;;;17.42;72.05;97770.72;5026155;28;20328;-58
2022/10/05 10:49:27;;;;;;;6.53;1.45;;;;;;;17.50;72.65;97770.09;5025762;28;20493;-61
2022/10/05 10:52:18;;;;;;;3.90;1.50;;;;;;;17.52;72.72;97769.81;5025646;28;20128;-59
2022/10/05 10:54:56;;;;;;;2.85;1.42;;;;;;;17.96;69.93;97768.03;5025526;28;20053;-61
2022/10/05 10:57:28;;;;;;;2.88;1.45;;;;;;;17.87;70.27;97764.28;5025812;28;20049;-56
2022/10/05 11:00:01;;;;;;;2.90;1.55;;;;;;;17.90;70.88;97761.78;5025127;28;20052;-61
2022/10/05 11:02:46;;;;;;;3.55;1.65;;;;;;;18.06;72.26;97761.63;5025365;28;20053;-60
2022/10/05 11:05:28;;;;;;;3.28;1.50;;;;;;;18.31;69.51;97756.94;5025683;28;20045;-59
2022/10/05 11:08:12;;;;;;;4.00;1.60;;;;;;;18.26;69.36;97762.50;5013419;28;19925;-61
2022/10/05 11:11:06;;;;;;;2.72;1.58;;;;;;;18.45;69.86;97757.88;5021832;28;20068;-57
2022/10/05 11:14:01;;;;;;;5.00;1.73;;;;;;;18.53;68.59;97750.91;5025588;28;20100;-59
2022/10/05 11:16:58;;;;;;;4.00;1.60;;;;;;;18.46;69.91;97753.19;5016524;28;20045;-58
2022/10/05 11:19:35;;;;;;;4.13;1.80;;;;;;;18.55;71.47;97750.59;5024473;28;20432;-60
2022/10/05 11:22:30;;;;;;;6.40;1.60;;;;;;;18.64;68.42;97745.28;5025501;28;20160;-64
2022/10/05 11:25:15;;;;;;;3.75;1.38;;;;;;;18.93;68.78;97747.88;5024292;28;20055;-62
2022/10/05 11:28:14;;;;;;;4.20;1.98;;;;;;;18.82;69.23;97738.16;5025534;28;20046;-62
2022/10/05 11:30:59;;;;;;;4.40;1.80;;;;;;;18.91;69.79;97730.06;5023323;28;20054;-62
2022/10/05 11:33:48;;;;;;;6.78;2.17;;;;;;;19.25;69.05;97729.00;5022407;28;20060;-62
2022/10/05 11:36:49;;;;;;;3.90;1.50;;;;;;;19.24;69.37;97727.41;5021097;28;20056;-62
2022/10/05 11:39:35;;;;;;;3.17;1.73;;;;;;;19.25;67.27;97723.53;5022895;28;20627;-62
2022/10/05 11:42:05;;;;;;;3.78;1.63;;;;;;;19.45;67.91;97727.00;5021120;28;20867;-62
2022/10/05 11:45:17;;;;;;;4.80;1.80;;;;;;;19.50;67.22;97726.94;5024388;28;20041;-62
2022/10/05 11:48:02;;;;;;;6.53;1.70;;;;;;;19.51;68.00;97714.84;5023944;28;20076;-62
2022/10/05 11:50:49;;;;;;;9.05;1.90;;;;;;;19.91;68.03;97721.78;5022814;28;20045;-62
2022/10/05 11:53:45;;;;;;;8.80;3.58;;;;;;;20.05;66.07;97719.88;5024634;28;20053;-62
2022/10/05 11:56:30;;;;;;;10.93;3.70;;;;;;;19.86;65.97;97718.00;5023296;28;20050;-65
2022/10/05 11:59:07;;;;;;;6.90;1.90;;;;;;;20.08;65.24;97715.72;5025099;28;20111;-65
2022/10/05 12:02:03;;;;;;;3.28;1.55;;;;;;;20.04;64.47;97710.00;5018708;28;20041;-65
2022/10/05 12:04:32;;;;;;;9.25;2.33;;;;;;;20.14;65.37;97711.72;5019182;28;20088;-64
2022/10/05 12:07:14;;;;;;;9.50;1.80;;;;;;;20.37;66.36;97709.88;5015196;28;20052;-64
2022/10/05 12:10:31;;;;;;;8.40;2.22;;;;;;;20.59;65.55;97702.78;5012899;28;20117;-64
2022/10/05 12:13:08;;;;;;;3.33;1.40;;;;;;;20.48;66.25;97706.88;5015690;28;20477;-63
2022/10/05 12:16:01;;;;;;;4.80;1.50;;;;;;;20.43;63.70;97709.75;5024157;28;20560;-63
2022/10/05 12:18:31;;;;;;;5.35;1.50;;;;;;;20.42;63.89;97703.44;5023428;28;20041;-63
2022/10/05 12:21:03;;;;;;;6.55;1.95;;;;;;;20.78;63.23;97710.88;5024338;28;20082;-63
2022/10/05 12:23:36;;;;;;;3.15;1.73;;;;;;;20.82;62.56;97707.50;5024422;28;20049;-63
2022/10/05 12:26:09;;;;;;;6.05;2.78;;;;;;;20.67;66.10;97715.81;5023293;28;20181;-63
2022/10/05 12:28:47;;;;;;;5.55;2.33;;;;;;;20.52;66.97;97708.72;5024164;28;20045;-64
2022/10/05 12:31:26;;;;;;;6.38;2.38;;;;;;;20.37;68.15;97703.53;5023901;28;20063;-63
2022/10/05 12:34:21;;;;;;;5.75;2.70;;;;;;;20.27;68.07;97702.66;5023881;28;20420;-63
2022/10/05 12:36:54;;;;;;;5.53;2.60;;;;;;;20.23;68.72;97703.59;5024173;28;20132;-63
2022/10/05 12:39:53;;;;;;;7.55;2.55;;;;;;;20.26;67.74;97705.69;5023258;28;20056;-62
2022/10/05 12:42:44;;;;;;;5.05;2.42;;;;;;;20.33;68.07;97708.84;5024023;28;20045;-63
2022/10/05 12:45:31;;;;;;;8.57;2.60;;;;;;;20.42;67.37;97708.13;5020573;28;20049;-62
2022/10/05 12:48:35;;;;;;;3.80;2.42;;;;;;;20.56;67.24;97699.84;5023591;28;20555;-62
2022/10/05 12:51:26;;;;;;;4.55;2.78;;;;;;;20.45;66.71;97702.81;5003624;28;20065;-63
2022/10/05 12:54:05;;;;;;;4.72;2.30;;;;;;;20.47;67.17;97700.59;5023398;28;20079;-62